createdAt,value
2022-12-16T00:00:27.399Z,2.90
2022-12-16T00:03:28.857Z,1.83
2022-12-16T00:06:31.637Z,2.42
2022-12-16T00:09:32.883Z,3.05
2022-12-16T00:12:34.177Z,2.10
2022-12-16T00:15:37.282Z,1.65
2022-12-16T00:18:38.828Z,2.75
2022-12-16T00:21:40.293Z,2.28
2022-12-16T00:24:41.571Z,2.25
2022-12-16T00:27:42.812Z,2.05
2022-12-16T00:30:44.762Z,2.42
2022-12-16T00:33:46.116Z,2.20
2022-12-16T00:36:47.390Z,2.17
2022-12-16T00:39:48.628Z,2.38
2022-12-16T00:42:49.891Z,1.83
2022-12-16T00:45:51.855Z,1.65
2022-12-16T00:48:53.318Z,1.83
2022-12-16T00:51:56.540Z,2.03
2022-12-16T00:54:57.865Z,1.70
2022-12-16T00:57:59.151Z,1.67
2022-12-16T01:01:00.787Z,2.67
2022-12-16T01:04:02.066Z,2.55
2022-12-16T01:07:03.504Z,2.30
2022-12-16T01:10:05.203Z,2.55
2022-12-16T01:13:06.703Z,1.58
2022-12-16T01:16:07.992Z,1.85
2022-12-16T01:19:09.481Z,2.05
2022-12-16T01:22:11.064Z,2.22
2022-12-16T01:25:15.603Z,1.63
2022-12-16T01:28:16.890Z,1.42
2022-12-16T01:31:18.560Z,2.03
2022-12-16T01:34:19.904Z,1.88
2022-12-16T01:37:21.413Z,3.05
2022-12-16T01:40:23.788Z,1.50
2022-12-16T01:43:30.033Z,2.60
2022-12-16T01:46:31.474Z,2.30
2022-12-16T01:49:38.774Z,1.90
2022-12-16T01:52:41.925Z,2.08
2022-12-16T01:55:46.126Z,1.45
2022-12-16T01:58:47.538Z,2.22
2022-12-16T02:01:48.925Z,1.80
2022-12-16T02:05:09.138Z,2.83
2022-12-16T02:08:10.333Z,1.70
2022-12-16T02:11:29.876Z,1.73
2022-12-16T02:14:40.286Z,2.15
2022-12-16T02:17:46.984Z,1.20
2022-12-16T02:21:08.500Z,0.95
2022-12-16T02:24:33.032Z,2.70
2022-12-16T02:27:40.932Z,1.20
2022-12-16T02:30:56.697Z,1.77
2022-12-16T02:34:08.965Z,2.17
2022-12-16T02:37:29.106Z,1.58
2022-12-16T02:40:35.013Z,1.90
2022-12-16T02:43:43.000Z,1.88
2022-12-16T02:46:52.882Z,2.00
2022-12-16T02:49:55.118Z,2.03
2022-12-16T02:52:57.632Z,2.30
2022-12-16T02:56:04.775Z,1.33
2022-12-16T02:59:15.354Z,2.92
2022-12-16T03:02:22.730Z,2.70
2022-12-16T03:05:32.834Z,2.35
2022-12-16T03:08:36.783Z,1.23
2022-12-16T03:11:40.328Z,1.60
2022-12-16T03:14:42.908Z,1.20
2022-12-16T03:17:46.235Z,2.72
2022-12-16T03:20:51.283Z,2.85
2022-12-16T03:23:54.002Z,2.72
2022-12-16T03:27:02.444Z,1.65
2022-12-16T03:30:13.291Z,2.88
2022-12-16T03:33:19.009Z,2.85
2022-12-16T03:36:22.203Z,1.55
2022-12-16T03:39:24.173Z,3.00
2022-12-16T03:42:25.830Z,1.70
2022-12-16T03:45:29.084Z,2.70
2022-12-16T03:48:31.032Z,2.00
2022-12-16T03:51:32.335Z,2.25
2022-12-16T03:54:33.733Z,1.70
2022-12-16T03:57:34.991Z,1.80
2022-12-16T04:00:36.485Z,1.63
2022-12-16T04:03:37.965Z,0.93
2022-12-16T04:06:39.354Z,1.58
2022-12-16T04:09:40.598Z,2.30
2022-12-16T04:13:00.726Z,3.42
2022-12-16T04:16:20.946Z,1.27
2022-12-16T04:19:50.160Z,0.85
2022-12-16T04:23:10.768Z,2.45
2022-12-16T04:26:12.177Z,2.33
2022-12-16T04:29:13.401Z,2.03
2022-12-16T04:32:14.678Z,1.67
2022-12-16T04:35:34.508Z,1.73
2022-12-16T04:38:54.221Z,1.48
2022-12-16T04:42:14.186Z,1.75
2022-12-16T04:45:34.277Z,1.38
2022-12-16T04:48:54.075Z,1.48
2022-12-16T04:52:14.197Z,2.08
2022-12-16T04:55:36.256Z,1.25
2022-12-16T04:58:55.968Z,1.90
2022-12-16T05:02:16.161Z,1.58
2022-12-16T05:05:36.005Z,1.25
2022-12-16T05:08:56.071Z,1.85
2022-12-16T05:12:16.196Z,1.92
2022-12-16T05:15:36.438Z,2.17
2022-12-16T05:18:56.507Z,0.85
2022-12-16T05:22:16.568Z,1.33
2022-12-16T05:25:36.373Z,0.98
2022-12-16T05:28:56.100Z,1.80
2022-12-16T05:32:16.198Z,1.77
2022-12-16T05:35:36.278Z,1.60
2022-12-16T05:38:56.053Z,1.80
2022-12-16T05:42:16.712Z,2.35
2022-12-16T05:45:36.771Z,2.03
2022-12-16T05:48:56.586Z,2.05
2022-12-16T05:52:16.591Z,1.55
2022-12-16T05:55:36.644Z,1.65
2022-12-16T05:58:56.415Z,2.42
2022-12-16T06:02:16.647Z,1.48
2022-12-16T06:05:36.512Z,1.80
2022-12-16T06:08:56.435Z,2.63
2022-12-16T06:12:16.539Z,1.30
2022-12-16T06:15:36.354Z,1.85
2022-12-16T06:18:56.358Z,0.95
2022-12-16T06:22:16.432Z,1.13
2022-12-16T06:25:36.391Z,0.90
2022-12-16T06:28:56.121Z,2.65
2022-12-16T06:32:16.179Z,1.65
2022-12-16T06:35:36.434Z,1.17
2022-12-16T06:38:56.340Z,1.75
2022-12-16T06:42:16.286Z,1.80
2022-12-16T06:45:36.383Z,1.88
2022-12-16T06:49:15.956Z,1.15
2022-12-16T06:52:36.005Z,0.85
2022-12-16T06:55:55.922Z,1.27
2022-12-16T06:59:15.902Z,2.47
2022-12-16T07:02:36.032Z,1.73
2022-12-16T07:05:55.964Z,2.10
2022-12-16T07:09:15.779Z,1.33
2022-12-16T07:12:35.992Z,2.83
2022-12-16T07:15:55.992Z,1.52
2022-12-16T07:19:15.676Z,1.40
2022-12-16T07:22:35.780Z,1.80
2022-12-16T07:25:55.791Z,1.90
2022-12-16T07:29:15.950Z,2.03
2022-12-16T07:32:35.999Z,2.42
2022-12-16T07:35:57.532Z,1.88
2022-12-16T07:39:17.333Z,1.23
2022-12-16T07:42:37.339Z,1.27
2022-12-16T07:45:58.400Z,3.00
2022-12-16T07:49:18.353Z,2.88
2022-12-16T07:52:38.311Z,1.23
2022-12-16T07:55:58.317Z,1.92
2022-12-16T07:59:18.154Z,1.23
2022-12-16T08:02:38.247Z,2.47
2022-12-16T08:05:58.241Z,1.67
2022-12-16T08:09:18.020Z,2.22
2022-12-16T08:12:38.003Z,1.33
2022-12-16T08:15:58.021Z,1.55
2022-12-16T08:19:17.865Z,1.42
2022-12-16T08:22:38.017Z,2.58
2022-12-16T08:25:58.146Z,1.40
2022-12-16T08:29:43.263Z,1.40
2022-12-16T08:33:00.705Z,2.45
2022-12-16T08:36:25.277Z,1.00
2022-12-16T08:39:45.091Z,0.88
2022-12-16T08:43:10.794Z,1.63
2022-12-16T08:46:32.619Z,2.10
2022-12-16T08:49:54.847Z,1.83
2022-12-16T08:53:17.594Z,2.30
2022-12-16T08:56:37.595Z,1.67
2022-12-16T08:59:57.499Z,2.42
2022-12-16T09:03:17.914Z,1.88
2022-12-16T09:06:40.589Z,2.33
2022-12-16T09:10:00.949Z,1.52
2022-12-16T09:13:31.697Z,2.17
2022-12-16T09:16:51.799Z,0.95
2022-12-16T09:20:12.048Z,1.95
2022-12-16T09:23:32.163Z,0.73
2022-12-16T09:26:52.622Z,2.05
2022-12-16T09:30:12.551Z,1.33
2022-12-16T09:33:32.716Z,2.65
2022-12-16T09:36:52.774Z,3.30
2022-12-16T09:40:12.587Z,2.63
2022-12-16T09:43:55.877Z,1.85
2022-12-16T09:47:45.033Z,1.38
2022-12-16T09:51:04.757Z,2.42
2022-12-16T09:54:27.997Z,1.35
2022-12-16T09:57:51.440Z,1.63
2022-12-16T10:01:11.380Z,1.83
2022-12-16T10:04:31.247Z,2.63
2022-12-16T10:08:13.083Z,1.55
2022-12-16T10:11:40.381Z,2.58
2022-12-16T10:15:07.728Z,2.63
2022-12-16T10:18:48.885Z,1.95
2022-12-16T10:22:27.548Z,2.08
2022-12-16T10:25:50.904Z,1.95
2022-12-16T10:29:32.037Z,1.90
2022-12-16T10:32:56.887Z,3.00
2022-12-16T10:36:17.051Z,1.48
2022-12-16T10:39:40.035Z,1.52
2022-12-16T10:43:22.575Z,3.97
2022-12-16T10:46:44.754Z,2.35
2022-12-16T10:50:04.826Z,3.28
2022-12-16T10:53:35.742Z,3.22
2022-12-16T10:57:05.808Z,3.40
2022-12-16T11:00:31.150Z,2.90
2022-12-16T11:03:52.529Z,3.30
2022-12-16T11:07:14.629Z,2.97
2022-12-16T11:10:45.503Z,3.92
2022-12-16T11:14:05.297Z,3.50
2022-12-16T11:17:34.433Z,4.05
2022-12-16T11:20:54.617Z,4.38
2022-12-16T11:24:23.594Z,4.85
2022-12-16T11:27:44.645Z,3.95
2022-12-16T11:31:08.706Z,3.92
2022-12-16T11:34:28.854Z,4.10
2022-12-16T11:37:50.383Z,5.03
2022-12-16T11:41:11.662Z,3.75
2022-12-16T11:44:33.861Z,4.15
2022-12-16T11:47:57.029Z,4.35
2022-12-16T11:51:18.128Z,4.40
2022-12-16T11:54:43.066Z,4.78
2022-12-16T11:58:06.623Z,4.15
2022-12-16T12:01:32.916Z,3.78
2022-12-16T12:04:52.788Z,3.35
2022-12-16T12:08:17.652Z,4.47
2022-12-16T12:11:43.641Z,5.15
2022-12-16T12:15:09.609Z,3.60
2022-12-16T12:18:38.526Z,4.45
2022-12-16T12:22:08.540Z,3.63
2022-12-16T12:25:29.076Z,3.67
2022-12-16T12:29:18.738Z,4.00
2022-12-16T12:32:38.851Z,4.50
2022-12-16T12:36:04.765Z,4.47
2022-12-16T12:39:34.003Z,4.22
2022-12-16T12:43:03.074Z,3.92
2022-12-16T12:46:44.735Z,4.57
2022-12-16T12:50:04.922Z,4.45
2022-12-16T12:53:31.237Z,4.72
2022-12-16T12:56:54.511Z,4.47
2022-12-16T13:00:23.263Z,4.10
2022-12-16T13:03:43.126Z,3.85
2022-12-16T13:07:03.128Z,4.35
2022-12-16T13:10:30.793Z,4.93
2022-12-16T13:13:52.782Z,5.25
2022-12-16T13:17:13.133Z,4.88
2022-12-16T13:21:02.754Z,4.43
2022-12-16T13:24:38.196Z,5.03
2022-12-16T13:28:13.678Z,4.93
2022-12-16T13:31:33.908Z,5.40
2022-12-16T13:34:54.084Z,5.00
2022-12-16T13:38:21.354Z,4.75
2022-12-16T13:41:44.628Z,5.00
2022-12-16T13:45:04.575Z,4.38
2022-12-16T13:48:43.606Z,4.78
2022-12-16T13:52:18.760Z,5.05
2022-12-16T13:55:42.197Z,4.75
2022-12-16T13:59:02.091Z,4.43
2022-12-16T14:02:33.238Z,5.07
2022-12-16T14:05:54.736Z,6.10
2022-12-16T14:09:14.558Z,5.30
2022-12-16T14:12:42.569Z,6.25
2022-12-16T14:16:06.815Z,5.38
2022-12-16T14:19:45.505Z,4.47
2022-12-16T14:23:10.731Z,4.68
2022-12-16T14:26:33.957Z,3.88
2022-12-16T14:29:54.294Z,3.80
2022-12-16T14:33:14.403Z,4.05
2022-12-16T14:36:38.754Z,4.20
2022-12-16T14:39:58.573Z,3.28
2022-12-16T14:43:18.639Z,2.90
2022-12-16T14:46:48.991Z,4.85
2022-12-16T14:50:10.514Z,3.25
2022-12-16T14:53:38.373Z,4.35
2022-12-16T14:56:58.565Z,2.75
2022-12-16T15:00:27.632Z,3.28
2022-12-16T15:03:54.153Z,3.88
2022-12-16T15:07:16.703Z,2.08
2022-12-16T15:10:37.419Z,3.53
2022-12-16T15:14:03.377Z,3.08
2022-12-16T15:17:24.070Z,3.95
2022-12-16T15:20:45.520Z,2.88
2022-12-16T15:24:05.523Z,2.55
2022-12-16T15:27:32.718Z,3.25
2022-12-16T15:30:57.332Z,3.80
2022-12-16T15:34:36.313Z,3.70
2022-12-16T15:38:03.642Z,3.05
2022-12-16T15:41:24.462Z,5.10
2022-12-16T15:44:45.625Z,4.03
2022-12-16T15:48:07.631Z,4.05
2022-12-16T15:51:40.050Z,2.00
2022-12-16T15:55:10.053Z,2.22
2022-12-16T15:58:31.625Z,3.10
2022-12-16T16:02:04.287Z,2.03
2022-12-16T16:05:31.863Z,3.53
2022-12-16T16:08:51.790Z,1.88
2022-12-16T16:12:11.878Z,2.97
2022-12-16T16:15:32.900Z,3.33
2022-12-16T16:18:53.222Z,4.28
2022-12-16T16:22:13.277Z,3.42
2022-12-16T16:25:33.238Z,4.22
2022-12-16T16:28:53.418Z,2.15
2022-12-16T16:32:13.414Z,3.00
2022-12-16T16:35:33.136Z,3.88
2022-12-16T16:38:53.030Z,3.38
2022-12-16T16:42:13.848Z,2.70
2022-12-16T16:45:34.045Z,3.17
2022-12-16T16:48:53.755Z,2.63
2022-12-16T16:52:13.831Z,4.55
2022-12-16T16:55:34.590Z,4.07
2022-12-16T16:58:54.636Z,3.30
2022-12-16T17:02:14.744Z,2.53
2022-12-16T17:05:34.595Z,2.38
2022-12-16T17:08:54.585Z,3.50
2022-12-16T17:12:14.604Z,3.17
2022-12-16T17:15:34.721Z,4.78
2022-12-16T17:18:54.871Z,2.38
2022-12-16T17:22:15.024Z,2.50
2022-12-16T17:25:35.532Z,4.85
2022-12-16T17:28:55.450Z,5.07
2022-12-16T17:32:15.473Z,3.25
2022-12-16T17:35:35.542Z,3.72
2022-12-16T17:38:56.744Z,4.47
2022-12-16T17:42:16.774Z,3.72
2022-12-16T17:45:36.892Z,3.45
2022-12-16T17:48:56.761Z,3.38
2022-12-16T17:52:16.727Z,2.78
2022-12-16T17:55:36.741Z,4.40
2022-12-16T17:58:57.133Z,2.08
2022-12-16T18:02:17.380Z,4.25
2022-12-16T18:05:44.030Z,2.83
2022-12-16T18:09:04.772Z,3.28
2022-12-16T18:12:24.737Z,2.92
2022-12-16T18:15:44.527Z,3.30
2022-12-16T18:19:07.606Z,3.13
2022-12-16T18:22:27.675Z,4.90
2022-12-16T18:25:47.503Z,3.15
2022-12-16T18:29:07.814Z,4.00
2022-12-16T18:32:33.405Z,3.20
2022-12-16T18:35:55.748Z,4.65
2022-12-16T18:39:15.817Z,2.70
2022-12-16T18:42:35.777Z,2.00
2022-12-16T18:45:55.718Z,1.88
2022-12-16T18:49:15.536Z,2.05
2022-12-16T18:52:36.170Z,2.13
2022-12-16T18:55:56.319Z,1.33
2022-12-16T18:59:17.044Z,2.20
2022-12-16T19:02:37.251Z,1.63
2022-12-16T19:05:59.013Z,2.28
2022-12-16T19:09:19.143Z,2.33
2022-12-16T19:12:39.209Z,2.75
2022-12-16T19:15:59.310Z,3.40
2022-12-16T19:19:20.386Z,3.00
2022-12-16T19:22:40.806Z,3.33
2022-12-16T19:26:00.620Z,3.55
2022-12-16T19:29:20.664Z,3.35
2022-12-16T19:32:40.760Z,3.92
2022-12-16T19:36:00.605Z,3.70
2022-12-16T19:39:20.683Z,3.10
2022-12-16T19:42:40.471Z,3.28
2022-12-16T19:46:00.569Z,2.58
2022-12-16T19:49:20.448Z,2.53
2022-12-16T19:52:40.592Z,2.58
2022-12-16T19:56:00.533Z,2.30
2022-12-16T19:59:20.378Z,3.75
2022-12-16T20:02:40.623Z,3.28
2022-12-16T20:06:00.632Z,3.55
2022-12-16T20:09:20.530Z,5.07
2022-12-16T20:12:40.518Z,5.35
2022-12-16T20:16:00.544Z,6.78
2022-12-16T20:19:20.282Z,4.85
2022-12-16T20:22:44.913Z,3.88
2022-12-16T20:26:14.487Z,3.20
2022-12-16T20:29:34.535Z,3.88
2022-12-16T20:32:56.041Z,3.10
2022-12-16T20:36:16.668Z,2.28
2022-12-16T20:39:36.517Z,3.55
2022-12-16T20:42:56.620Z,3.30
2022-12-16T20:46:16.639Z,3.55
2022-12-16T20:49:36.294Z,2.38
2022-12-16T20:52:56.318Z,3.08
2022-12-16T20:56:19.659Z,1.75
2022-12-16T20:59:39.467Z,3.20
2022-12-16T21:02:59.626Z,2.33
2022-12-16T21:06:19.439Z,2.67
2022-12-16T21:09:39.238Z,4.65
2022-12-16T21:13:03.421Z,5.28
2022-12-16T21:16:26.402Z,4.93
2022-12-16T21:20:05.991Z,3.08
2022-12-16T21:23:27.018Z,2.85
2022-12-16T21:26:46.887Z,3.08
2022-12-16T21:30:06.856Z,2.03
2022-12-16T21:33:33.953Z,3.35
2022-12-16T21:36:54.080Z,4.30
2022-12-16T21:40:16.051Z,2.58
2022-12-16T21:43:35.942Z,2.90
2022-12-16T21:46:55.999Z,1.98
2022-12-16T21:50:16.502Z,3.28
2022-12-16T21:53:37.020Z,1.67
2022-12-16T21:56:57.220Z,2.85
2022-12-16T22:00:17.175Z,2.58
2022-12-16T22:03:37.372Z,1.73
2022-12-16T22:06:57.548Z,3.10
2022-12-16T22:10:17.448Z,1.55
2022-12-16T22:13:37.884Z,2.28
2022-12-16T22:17:17.876Z,1.42
2022-12-16T22:20:37.987Z,2.25
2022-12-16T22:23:57.852Z,2.08
2022-12-16T22:27:18.260Z,2.83
2022-12-16T22:30:38.322Z,2.35
2022-12-16T22:33:58.436Z,2.20
2022-12-16T22:37:18.572Z,2.58
2022-12-16T22:40:38.623Z,2.42
2022-12-16T22:43:58.346Z,2.78
2022-12-16T22:47:18.331Z,1.70
2022-12-16T22:50:38.179Z,2.05
2022-12-16T22:53:57.999Z,2.08
2022-12-16T22:57:18.270Z,2.10
2022-12-16T23:00:38.328Z,1.42
2022-12-16T23:03:58.136Z,1.67
2022-12-16T23:07:18.278Z,2.83
2022-12-16T23:10:38.380Z,1.15
2022-12-16T23:13:58.671Z,2.80
2022-12-16T23:17:18.554Z,2.53
2022-12-16T23:20:38.545Z,2.28
2022-12-16T23:23:58.374Z,1.33
2022-12-16T23:27:18.557Z,1.27
2022-12-16T23:30:38.697Z,1.63
2022-12-16T23:33:58.342Z,2.60
2022-12-16T23:37:18.272Z,3.08
2022-12-16T23:40:38.065Z,2.53
2022-12-16T23:43:58.188Z,2.67
2022-12-16T23:47:18.224Z,1.92
2022-12-16T23:50:38.135Z,2.10
2022-12-16T23:53:58.455Z,1.95
2022-12-16T23:57:18.582Z,1.92
